sensor_id;sensor_type;location;lat;lon;timestamp;temperature;humidity
670;DHT22;317;48.758;9.302;2022-09-09T00:01:41;14.20;99.90
670;DHT22;317;48.758;9.302;2022-09-09T00:04:15;14.10;99.90
670;DHT22;317;48.758;9.302;2022-09-09T00:06:48;14.10;99.90
670;DHT22;317;48.758;9.302;2022-09-09T00:09:17;14.10;99.90
670;DHT22;317;48.758;9.302;2022-09-09T00:11:48;14.10;99.90
670;DHT22;317;48.758;9.302;2022-09-09T00:14:22;14.10;99.90
670;DHT22;317;48.758;9.302;2022-09-09T00:16:54;14.10;99.90
670;DHT22;317;48.758;9.302;2022-09-09T00:19:24;14.10;99.90
670;DHT22;317;48.758;9.302;2022-09-09T00:22:02;14.10;99.90
670;DHT22;317;48.758;9.302;2022-09-09T00:24:37;14.10;99.90
670;DHT22;317;48.758;9.302;2022-09-09T00:27:10;14.10;99.90
670;DHT22;317;48.758;9.302;2022-09-09T00:29:43;14.10;99.90
670;DHT22;317;48.758;9.302;2022-09-09T00:32:13;14.10;99.90
670;DHT22;317;48.758;9.302;2022-09-09T00:34:46;14.10;99.90
670;DHT22;317;48.758;9.302;2022-09-09T00:37:13;14.10;99.90
670;DHT22;317;48.758;9.302;2022-09-09T00:39:42;14.20;99.90
670;DHT22;317;48.758;9.302;2022-09-09T00:42:14;14.20;99.90
670;DHT22;317;48.758;9.302;2022-09-09T00:44:52;14.20;99.90
670;DHT22;317;48.758;9.302;2022-09-09T00:47:38;14.30;99.90
670;DHT22;317;48.758;9.302;2022-09-09T00:50:30;14.40;99.90
670;DHT22;317;48.758;9.302;2022-09-09T00:53:09;14.40;99.90
670;DHT22;317;48.758;9.302;2022-09-09T00:55:43;14.40;99.90
670;DHT22;317;48.758;9.302;2022-09-09T00:58:12;14.50;99.90
670;DHT22;317;48.758;9.302;2022-09-09T01:00:43;14.50;99.90
670;DHT22;317;48.758;9.302;2022-09-09T01:03:22;14.60;99.90
670;DHT22;317;48.758;9.302;2022-09-09T01:06:11;14.60;99.90
670;DHT22;317;48.758;9.302;2022-09-09T01:09:07;14.60;99.90
670;DHT22;317;48.758;9.302;2022-09-09T01:11:43;14.60;99.90
670;DHT22;317;48.758;9.302;2022-09-09T01:14:24;14.60;99.90
670;DHT22;317;48.758;9.302;2022-09-09T01:16:58;14.60;99.90
670;DHT22;317;48.758;9.302;2022-09-09T01:19:37;14.60;99.90
670;DHT22;317;48.758;9.302;2022-09-09T01:22:10;14.60;99.90
670;DHT22;317;48.758;9.302;2022-09-09T01:24:45;14.60;99.90
670;DHT22;317;48.758;9.302;2022-09-09T01:27:18;14.70;99.90
670;DHT22;317;48.758;9.302;2022-09-09T01:29:46;14.60;99.90
670;DHT22;317;48.758;9.302;2022-09-09T01:32:37;14.70;99.90
670;DHT22;317;48.758;9.302;2022-09-09T01:35:06;14.60;99.90
670;DHT22;317;48.758;9.302;2022-09-09T01:37:34;14.60;99.90
670;DHT22;317;48.758;9.302;2022-09-09T01:40:01;14.60;99.90
670;DHT22;317;48.758;9.302;2022-09-09T01:42:29;14.60;99.90
670;DHT22;317;48.758;9.302;2022-09-09T01:44:56;14.60;99.90
670;DHT22;317;48.758;9.302;2022-09-09T01:47:22;14.60;99.90
670;DHT22;317;48.758;9.302;2022-09-09T01:49:49;14.60;99.90
670;DHT22;317;48.758;9.302;2022-09-09T01:52:16;14.60;99.90
670;DHT22;317;48.758;9.302;2022-09-09T01:54:43;14.60;99.90
670;DHT22;317;48.758;9.302;2022-09-09T01:57:17;14.60;99.90
670;DHT22;317;48.758;9.302;2022-09-09T02:00:05;14.60;99.90
670;DHT22;317;48.758;9.302;2022-09-09T02:02:38;14.60;99.90
670;DHT22;317;48.758;9.302;2022-09-09T02:05:16;14.50;99.90
670;DHT22;317;48.758;9.302;2022-09-09T02:07:47;14.50;99.90
670;DHT22;317;48.758;9.302;2022-09-09T02:10:20;14.50;99.90
670;DHT22;317;48.758;9.302;2022-09-09T02:12:52;14.50;99.90
670;DHT22;317;48.758;9.302;2022-09-09T02:15:26;14.50;99.90
670;DHT22;317;48.758;9.302;2022-09-09T02:17:57;14.50;99.90
670;DHT22;317;48.758;9.302;2022-09-09T02:20:25;14.50;99.90
670;DHT22;317;48.758;9.302;2022-09-09T02:22:53;14.40;99.90
670;DHT22;317;48.758;9.302;2022-09-09T02:25:24;14.40;99.90
670;DHT22;317;48.758;9.302;2022-09-09T02:27:52;14.40;99.90
670;DHT22;317;48.758;9.302;2022-09-09T02:30:19;14.30;99.90
670;DHT22;317;48.758;9.302;2022-09-09T02:32:50;14.30;99.90
670;DHT22;317;48.758;9.302;2022-09-09T02:35:21;14.30;99.90
670;DHT22;317;48.758;9.302;2022-09-09T02:37:53;14.20;99.90
670;DHT22;317;48.758;9.302;2022-09-09T02:40:21;14.30;99.90
670;DHT22;317;48.758;9.302;2022-09-09T02:42:49;14.20;99.90
670;DHT22;317;48.758;9.302;2022-09-09T02:45:19;14.20;99.90
670;DHT22;317;48.758;9.302;2022-09-09T02:47:53;14.10;99.90
670;DHT22;317;48.758;9.302;2022-09-09T02:50:25;14.10;99.90
670;DHT22;317;48.758;9.302;2022-09-09T02:53:00;14.00;99.90
670;DHT22;317;48.758;9.302;2022-09-09T02:55:37;14.00;99.90
670;DHT22;317;48.758;9.302;2022-09-09T02:58:07;14.10;99.90
670;DHT22;317;48.758;9.302;2022-09-09T03:00:36;14.00;99.90
670;DHT22;317;48.758;9.302;2022-09-09T03:03:04;13.90;99.90
670;DHT22;317;48.758;9.302;2022-09-09T03:05:32;13.90;99.90
670;DHT22;317;48.758;9.302;2022-09-09T03:07:58;13.80;99.90
670;DHT22;317;48.758;9.302;2022-09-09T03:10:25;13.80;99.90
670;DHT22;317;48.758;9.302;2022-09-09T03:12:52;13.80;99.90
670;DHT22;317;48.758;9.302;2022-09-09T03:15:19;13.70;99.90
670;DHT22;317;48.758;9.302;2022-09-09T03:17:45;13.70;99.90
670;DHT22;317;48.758;9.302;2022-09-09T03:20:14;13.70;99.90
670;DHT22;317;48.758;9.302;2022-09-09T03:22:40;13.70;99.90
670;DHT22;317;48.758;9.302;2022-09-09T03:25:07;13.80;99.90
670;DHT22;317;48.758;9.302;2022-09-09T03:27:34;13.80;99.90
670;DHT22;317;48.758;9.302;2022-09-09T03:30:01;13.80;99.90
670;DHT22;317;48.758;9.302;2022-09-09T03:32:29;13.80;99.90
670;DHT22;317;48.758;9.302;2022-09-09T03:34:57;13.80;99.90
670;DHT22;317;48.758;9.302;2022-09-09T03:37:25;13.80;99.90
670;DHT22;317;48.758;9.302;2022-09-09T03:39:52;13.80;99.90
670;DHT22;317;48.758;9.302;2022-09-09T03:42:20;13.80;99.90
670;DHT22;317;48.758;9.302;2022-09-09T03:44:47;13.80;99.90
670;DHT22;317;48.758;9.302;2022-09-09T03:47:15;13.80;99.90
670;DHT22;317;48.758;9.302;2022-09-09T03:49:42;13.80;99.90
670;DHT22;317;48.758;9.302;2022-09-09T03:52:09;13.80;99.90
670;DHT22;317;48.758;9.302;2022-09-09T03:54:37;13.70;99.90
670;DHT22;317;48.758;9.302;2022-09-09T03:57:04;13.80;99.90
670;DHT22;317;48.758;9.302;2022-09-09T03:59:31;13.70;99.90
670;DHT22;317;48.758;9.302;2022-09-09T04:01:58;13.70;99.90
670;DHT22;317;48.758;9.302;2022-09-09T04:04:25;13.70;99.90
670;DHT22;317;48.758;9.302;2022-09-09T04:06:52;13.70;99.90
670;DHT22;317;48.758;9.302;2022-09-09T04:09:19;13.70;99.90
670;DHT22;317;48.758;9.302;2022-09-09T04:11:48;13.80;99.90
670;DHT22;317;48.758;9.302;2022-09-09T04:14:15;13.80;99.90
670;DHT22;317;48.758;9.302;2022-09-09T04:16:41;13.80;99.90
670;DHT22;317;48.758;9.302;2022-09-09T04:19:10;13.80;99.90
670;DHT22;317;48.758;9.302;2022-09-09T04:21:38;13.80;99.90
670;DHT22;317;48.758;9.302;2022-09-09T04:24:06;13.80;99.90
670;DHT22;317;48.758;9.302;2022-09-09T04:26:35;13.80;99.90
670;DHT22;317;48.758;9.302;2022-09-09T04:29:04;13.80;99.90
670;DHT22;317;48.758;9.302;2022-09-09T04:31:32;13.90;99.90
670;DHT22;317;48.758;9.302;2022-09-09T04:33:59;13.90;99.90
670;DHT22;317;48.758;9.302;2022-09-09T04:36:30;13.90;99.90
670;DHT22;317;48.758;9.302;2022-09-09T04:38:57;14.00;99.90
670;DHT22;317;48.758;9.302;2022-09-09T04:41:24;14.00;99.90
670;DHT22;317;48.758;9.302;2022-09-09T04:43:51;14.00;99.90
670;DHT22;317;48.758;9.302;2022-09-09T04:46:20;14.10;99.90
670;DHT22;317;48.758;9.302;2022-09-09T04:48:48;14.10;99.90
670;DHT22;317;48.758;9.302;2022-09-09T04:51:15;14.20;99.90
670;DHT22;317;48.758;9.302;2022-09-09T04:53:42;14.40;99.90
670;DHT22;317;48.758;9.302;2022-09-09T04:56:10;14.40;99.90
670;DHT22;317;48.758;9.302;2022-09-09T04:58:37;14.40;99.90
670;DHT22;317;48.758;9.302;2022-09-09T05:01:06;14.50;99.90
670;DHT22;317;48.758;9.302;2022-09-09T05:03:34;14.50;99.90
670;DHT22;317;48.758;9.302;2022-09-09T05:06:06;14.50;99.90
670;DHT22;317;48.758;9.302;2022-09-09T05:08:34;14.60;99.90
670;DHT22;317;48.758;9.302;2022-09-09T05:11:01;14.60;99.90
670;DHT22;317;48.758;9.302;2022-09-09T05:13:28;14.60;99.90
670;DHT22;317;48.758;9.302;2022-09-09T05:15:57;14.50;99.90
670;DHT22;317;48.758;9.302;2022-09-09T05:18:24;14.50;99.90
670;DHT22;317;48.758;9.302;2022-09-09T05:20:52;14.50;99.90
670;DHT22;317;48.758;9.302;2022-09-09T05:23:19;14.50;99.90
670;DHT22;317;48.758;9.302;2022-09-09T05:25:55;14.60;99.90
670;DHT22;317;48.758;9.302;2022-09-09T05:28:22;14.60;99.90
670;DHT22;317;48.758;9.302;2022-09-09T05:30:55;14.70;99.90
670;DHT22;317;48.758;9.302;2022-09-09T05:33:23;14.70;99.90
670;DHT22;317;48.758;9.302;2022-09-09T05:35:59;14.80;99.90
670;DHT22;317;48.758;9.302;2022-09-09T05:38:27;14.80;99.90
670;DHT22;317;48.758;9.302;2022-09-09T05:40:54;14.90;99.90
670;DHT22;317;48.758;9.302;2022-09-09T05:43:22;15.00;99.90
670;DHT22;317;48.758;9.302;2022-09-09T05:45:59;15.10;99.90
670;DHT22;317;48.758;9.302;2022-09-09T05:48:28;15.20;99.90
670;DHT22;317;48.758;9.302;2022-09-09T05:50:56;15.30;99.90
670;DHT22;317;48.758;9.302;2022-09-09T05:53:23;15.30;99.90
670;DHT22;317;48.758;9.302;2022-09-09T05:55:49;15.40;99.90
670;DHT22;317;48.758;9.302;2022-09-09T05:58:16;15.40;99.90
670;DHT22;317;48.758;9.302;2022-09-09T06:00:43;15.40;99.90
670;DHT22;317;48.758;9.302;2022-09-09T06:03:10;15.50;99.90
670;DHT22;317;48.758;9.302;2022-09-09T06:05:37;15.50;99.90
670;DHT22;317;48.758;9.302;2022-09-09T06:08:05;15.50;99.90
670;DHT22;317;48.758;9.302;2022-09-09T06:10:32;15.60;99.90
670;DHT22;317;48.758;9.302;2022-09-09T06:13:00;15.60;99.90
670;DHT22;317;48.758;9.302;2022-09-09T06:15:26;15.70;99.90
670;DHT22;317;48.758;9.302;2022-09-09T06:17:55;15.70;99.90
670;DHT22;317;48.758;9.302;2022-09-09T06:20:21;15.80;99.90
670;DHT22;317;48.758;9.302;2022-09-09T06:22:48;15.90;99.90
670;DHT22;317;48.758;9.302;2022-09-09T06:25:16;15.90;99.90
670;DHT22;317;48.758;9.302;2022-09-09T06:27:48;16.00;99.90
670;DHT22;317;48.758;9.302;2022-09-09T06:30:16;15.90;99.90
670;DHT22;317;48.758;9.302;2022-09-09T06:32:43;15.90;99.90
670;DHT22;317;48.758;9.302;2022-09-09T06:35:10;16.00;99.90
670;DHT22;317;48.758;9.302;2022-09-09T06:37:37;16.00;99.90
670;DHT22;317;48.758;9.302;2022-09-09T06:40:05;16.10;99.90
670;DHT22;317;48.758;9.302;2022-09-09T06:42:33;16.10;99.90
670;DHT22;317;48.758;9.302;2022-09-09T06:45:00;16.10;99.90
670;DHT22;317;48.758;9.302;2022-09-09T06:47:28;16.20;99.90
670;DHT22;317;48.758;9.302;2022-09-09T06:49:55;16.20;99.90
670;DHT22;317;48.758;9.302;2022-09-09T06:52:22;16.30;99.90
670;DHT22;317;48.758;9.302;2022-09-09T06:54:50;16.40;99.90
670;DHT22;317;48.758;9.302;2022-09-09T06:57:16;16.50;99.90
670;DHT22;317;48.758;9.302;2022-09-09T06:59:44;16.60;99.90
670;DHT22;317;48.758;9.302;2022-09-09T07:02:11;16.70;99.90
670;DHT22;317;48.758;9.302;2022-09-09T07:04:38;16.80;99.90
670;DHT22;317;48.758;9.302;2022-09-09T07:07:04;17.00;99.90
670;DHT22;317;48.758;9.302;2022-09-09T07:09:31;17.00;99.90
670;DHT22;317;48.758;9.302;2022-09-09T07:11:58;17.20;99.90
670;DHT22;317;48.758;9.302;2022-09-09T07:14:25;17.30;99.90
670;DHT22;317;48.758;9.302;2022-09-09T07:16:54;17.30;99.90
670;DHT22;317;48.758;9.302;2022-09-09T07:19:22;17.40;99.90
670;DHT22;317;48.758;9.302;2022-09-09T07:21:51;17.50;99.90
670;DHT22;317;48.758;9.302;2022-09-09T07:24:18;17.60;99.90
670;DHT22;317;48.758;9.302;2022-09-09T07:26:45;17.60;99.90
670;DHT22;317;48.758;9.302;2022-09-09T07:29:12;17.70;99.90
670;DHT22;317;48.758;9.302;2022-09-09T07:31:41;17.80;99.90
670;DHT22;317;48.758;9.302;2022-09-09T07:34:09;17.90;99.90
670;DHT22;317;48.758;9.302;2022-09-09T07:36:37;18.00;99.90
670;DHT22;317;48.758;9.302;2022-09-09T07:39:06;18.00;99.90
670;DHT22;317;48.758;9.302;2022-09-09T07:41:35;18.10;99.90
670;DHT22;317;48.758;9.302;2022-09-09T07:44:05;18.30;99.90
670;DHT22;317;48.758;9.302;2022-09-09T07:46:32;18.30;99.90
670;DHT22;317;48.758;9.302;2022-09-09T07:48:59;18.40;99.90
670;DHT22;317;48.758;9.302;2022-09-09T07:51:30;18.40;99.90
670;DHT22;317;48.758;9.302;2022-09-09T07:53:58;18.40;99.90
670;DHT22;317;48.758;9.302;2022-09-09T07:56:27;18.50;99.90
670;DHT22;317;48.758;9.302;2022-09-09T07:58:56;18.60;99.90
670;DHT22;317;48.758;9.302;2022-09-09T08:01:26;18.60;99.90
670;DHT22;317;48.758;9.302;2022-09-09T08:03:56;18.60;99.90
670;DHT22;317;48.758;9.302;2022-09-09T08:06:24;18.60;99.90
670;DHT22;317;48.758;9.302;2022-09-09T08:08:54;18.70;99.90
670;DHT22;317;48.758;9.302;2022-09-09T08:11:23;18.70;99.90
670;DHT22;317;48.758;9.302;2022-09-09T08:13:51;18.80;99.90
670;DHT22;317;48.758;9.302;2022-09-09T08:16:19;18.90;99.90
670;DHT22;317;48.758;9.302;2022-09-09T08:18:48;18.90;99.90
670;DHT22;317;48.758;9.302;2022-09-09T08:21:18;19.10;99.90
670;DHT22;317;48.758;9.302;2022-09-09T08:23:47;19.20;99.90
670;DHT22;317;48.758;9.302;2022-09-09T08:26:16;19.30;99.90
670;DHT22;317;48.758;9.302;2022-09-09T08:28:49;19.30;99.90
670;DHT22;317;48.758;9.302;2022-09-09T08:31:17;19.40;99.90
670;DHT22;317;48.758;9.302;2022-09-09T08:33:45;19.50;99.90
670;DHT22;317;48.758;9.302;2022-09-09T08:36:14;19.60;99.90
670;DHT22;317;48.758;9.302;2022-09-09T08:38:42;19.70;99.90
670;DHT22;317;48.758;9.302;2022-09-09T08:41:35;19.90;99.90
670;DHT22;317;48.758;9.302;2022-09-09T08:44:07;19.70;99.90
670;DHT22;317;48.758;9.302;2022-09-09T08:46:46;19.80;99.90
670;DHT22;317;48.758;9.302;2022-09-09T08:49:24;19.60;99.90
670;DHT22;317;48.758;9.302;2022-09-09T08:51:58;19.80;99.90
670;DHT22;317;48.758;9.302;2022-09-09T08:54:34;19.90;99.90
670;DHT22;317;48.758;9.302;2022-09-09T08:57:04;20.20;99.90
670;DHT22;317;48.758;9.302;2022-09-09T08:59:36;20.40;99.90
670;DHT22;317;48.758;9.302;2022-09-09T09:02:08;20.50;99.90
670;DHT22;317;48.758;9.302;2022-09-09T09:04:49;20.60;99.90
670;DHT22;317;48.758;9.302;2022-09-09T09:07:25;20.70;99.90
670;DHT22;317;48.758;9.302;2022-09-09T09:09:59;20.90;99.90
670;DHT22;317;48.758;9.302;2022-09-09T09:12:32;21.00;99.90
670;DHT22;317;48.758;9.302;2022-09-09T09:15:01;21.20;99.90
670;DHT22;317;48.758;9.302;2022-09-09T09:17:30;21.30;99.90
670;DHT22;317;48.758;9.302;2022-09-09T09:19:58;21.40;99.90
670;DHT22;317;48.758;9.302;2022-09-09T09:22:30;21.50;99.90
670;DHT22;317;48.758;9.302;2022-09-09T09:25:04;21.60;99.90
670;DHT22;317;48.758;9.302;2022-09-09T09:27:41;21.80;99.90
670;DHT22;317;48.758;9.302;2022-09-09T09:30:15;22.00;99.90
670;DHT22;317;48.758;9.302;2022-09-09T09:32:50;22.10;99.90
670;DHT22;317;48.758;9.302;2022-09-09T09:35:18;22.20;99.90
670;DHT22;317;48.758;9.302;2022-09-09T09:37:45;22.30;99.90
670;DHT22;317;48.758;9.302;2022-09-09T09:40:13;22.20;99.90
670;DHT22;317;48.758;9.302;2022-09-09T09:42:51;21.80;99.90
670;DHT22;317;48.758;9.302;2022-09-09T09:45:27;20.70;99.90
670;DHT22;317;48.758;9.302;2022-09-09T09:47:59;19.80;99.90
670;DHT22;317;48.758;9.302;2022-09-09T09:50:28;19.20;99.90
670;DHT22;317;48.758;9.302;2022-09-09T09:52:56;18.90;99.90
670;DHT22;317;48.758;9.302;2022-09-09T09:55:24;18.70;99.90
670;DHT22;317;48.758;9.302;2022-09-09T09:57:54;18.60;99.90
670;DHT22;317;48.758;9.302;2022-09-09T10:00:27;18.60;99.90
670;DHT22;317;48.758;9.302;2022-09-09T10:02:54;18.80;99.90
670;DHT22;317;48.758;9.302;2022-09-09T10:05:25;19.00;99.90
670;DHT22;317;48.758;9.302;2022-09-09T10:08:03;19.20;99.90
670;DHT22;317;48.758;9.302;2022-09-09T10:10:48;19.30;99.90
670;DHT22;317;48.758;9.302;2022-09-09T10:13:22;19.60;99.90
670;DHT22;317;48.758;9.302;2022-09-09T10:16:01;19.90;99.90
670;DHT22;317;48.758;9.302;2022-09-09T10:18:47;20.10;99.90
670;DHT22;317;48.758;9.302;2022-09-09T10:21:31;20.40;99.90
670;DHT22;317;48.758;9.302;2022-09-09T10:24:15;20.70;99.90
670;DHT22;317;48.758;9.302;2022-09-09T10:26:49;20.90;99.90
670;DHT22;317;48.758;9.302;2022-09-09T10:29:39;21.30;99.90
670;DHT22;317;48.758;9.302;2022-09-09T10:32:29;21.60;99.90
670;DHT22;317;48.758;9.302;2022-09-09T10:35:04;21.90;99.90
670;DHT22;317;48.758;9.302;2022-09-09T10:45:02;22.60;99.90
670;DHT22;317;48.758;9.302;2022-09-09T10:47:59;23.00;99.90
670;DHT22;317;48.758;9.302;2022-09-09T10:50:48;23.20;99.90
670;DHT22;317;48.758;9.302;2022-09-09T10:53:25;23.10;99.90
670;DHT22;317;48.758;9.302;2022-09-09T10:56:01;23.30;99.90
670;DHT22;317;48.758;9.302;2022-09-09T10:58:38;23.40;99.90
670;DHT22;317;48.758;9.302;2022-09-09T11:01:15;23.20;99.90
670;DHT22;317;48.758;9.302;2022-09-09T11:03:45;23.00;99.90
670;DHT22;317;48.758;9.302;2022-09-09T11:06:18;23.10;99.90
670;DHT22;317;48.758;9.302;2022-09-09T11:08:46;23.40;99.90
670;DHT22;317;48.758;9.302;2022-09-09T11:11:19;23.20;99.50
670;DHT22;317;48.758;9.302;2022-09-09T11:13:53;23.40;99.30
670;DHT22;317;48.758;9.302;2022-09-09T11:16:28;23.80;97.60
670;DHT22;317;48.758;9.302;2022-09-09T11:19:01;24.00;97.30
670;DHT22;317;48.758;9.302;2022-09-09T11:21:42;24.50;95.10
670;DHT22;317;48.758;9.302;2022-09-09T11:25:38;24.40;96.90
670;DHT22;317;48.758;9.302;2022-09-09T11:31:27;23.90;93.80
670;DHT22;317;48.758;9.302;2022-09-09T11:34:37;23.20;92.70
670;DHT22;317;48.758;9.302;2022-09-09T11:37:53;22.80;95.80
670;DHT22;317;48.758;9.302;2022-09-09T11:40:24;22.50;98.70
670;DHT22;317;48.758;9.302;2022-09-09T11:43:05;22.00;99.90
670;DHT22;317;48.758;9.302;2022-09-09T11:45:36;21.50;99.90
670;DHT22;317;48.758;9.302;2022-09-09T11:48:04;20.90;99.90
670;DHT22;317;48.758;9.302;2022-09-09T11:50:35;20.60;99.90
670;DHT22;317;48.758;9.302;2022-09-09T11:53:20;20.50;99.90
670;DHT22;317;48.758;9.302;2022-09-09T11:55:48;20.20;99.90
670;DHT22;317;48.758;9.302;2022-09-09T11:58:17;20.30;99.90
670;DHT22;317;48.758;9.302;2022-09-09T12:00:47;20.60;99.90
670;DHT22;317;48.758;9.302;2022-09-09T12:03:34;20.90;99.90
670;DHT22;317;48.758;9.302;2022-09-09T12:06:14;21.30;99.90
670;DHT22;317;48.758;9.302;2022-09-09T12:08:45;21.60;99.90
670;DHT22;317;48.758;9.302;2022-09-09T12:11:24;21.50;97.60
670;DHT22;317;48.758;9.302;2022-09-09T12:13:53;21.90;98.10
670;DHT22;317;48.758;9.302;2022-09-09T12:16:32;22.30;96.60
670;DHT22;317;48.758;9.302;2022-09-09T12:19:14;22.10;93.70
670;DHT22;317;48.758;9.302;2022-09-09T12:21:49;22.10;95.90
670;DHT22;317;48.758;9.302;2022-09-09T12:24:25;22.50;91.50
670;DHT22;317;48.758;9.302;2022-09-09T12:27:00;22.40;91.20
670;DHT22;317;48.758;9.302;2022-09-09T12:29:51;22.40;92.50
670;DHT22;317;48.758;9.302;2022-09-09T12:32:24;22.40;89.60
670;DHT22;317;48.758;9.302;2022-09-09T12:34:55;22.50;85.30
670;DHT22;317;48.758;9.302;2022-09-09T12:37:31;23.30;84.90
670;DHT22;317;48.758;9.302;2022-09-09T12:40:00;23.80;76.60
670;DHT22;317;48.758;9.302;2022-09-09T12:42:28;24.10;78.20
670;DHT22;317;48.758;9.302;2022-09-09T12:44:56;24.60;71.40
670;DHT22;317;48.758;9.302;2022-09-09T12:47:30;24.90;71.70
670;DHT22;317;48.758;9.302;2022-09-09T12:50:01;25.40;69.90
670;DHT22;317;48.758;9.302;2022-09-09T12:52:31;25.70;66.60
670;DHT22;317;48.758;9.302;2022-09-09T12:55:01;25.60;64.90
670;DHT22;317;48.758;9.302;2022-09-09T12:57:33;25.80;63.60
670;DHT22;317;48.758;9.302;2022-09-09T13:00:07;25.10;62.40
670;DHT22;317;48.758;9.302;2022-09-09T13:02:36;25.30;63.00
670;DHT22;317;48.758;9.302;2022-09-09T13:05:17;24.80;63.20
670;DHT22;317;48.758;9.302;2022-09-09T13:07:45;24.80;65.40
670;DHT22;317;48.758;9.302;2022-09-09T13:10:15;24.40;65.70
670;DHT22;317;48.758;9.302;2022-09-09T13:12:46;24.60;64.70
670;DHT22;317;48.758;9.302;2022-09-09T13:15:19;24.50;67.50
670;DHT22;317;48.758;9.302;2022-09-09T13:17:52;24.00;66.40
670;DHT22;317;48.758;9.302;2022-09-09T13:20:22;23.50;68.70
670;DHT22;317;48.758;9.302;2022-09-09T13:22:50;23.20;75.30
670;DHT22;317;48.758;9.302;2022-09-09T13:25:20;23.00;70.70
670;DHT22;317;48.758;9.302;2022-09-09T13:27:55;23.20;70.80
670;DHT22;317;48.758;9.302;2022-09-09T13:30:25;23.60;70.10
670;DHT22;317;48.758;9.302;2022-09-09T13:33:20;23.70;70.70
670;DHT22;317;48.758;9.302;2022-09-09T13:35:51;23.70;67.60
670;DHT22;317;48.758;9.302;2022-09-09T13:38:19;23.70;68.40
670;DHT22;317;48.758;9.302;2022-09-09T13:40:55;23.50;70.00
670;DHT22;317;48.758;9.302;2022-09-09T13:43:24;24.20;69.20
670;DHT22;317;48.758;9.302;2022-09-09T13:45:54;24.80;67.30
670;DHT22;317;48.758;9.302;2022-09-09T13:48:21;25.60;64.80
670;DHT22;317;48.758;9.302;2022-09-09T13:51:04;26.00;63.00
670;DHT22;317;48.758;9.302;2022-09-09T13:53:31;26.50;60.00
670;DHT22;317;48.758;9.302;2022-09-09T13:55:58;26.70;57.90
670;DHT22;317;48.758;9.302;2022-09-09T13:58:26;26.80;57.90
670;DHT22;317;48.758;9.302;2022-09-09T14:00:53;26.20;58.50
670;DHT22;317;48.758;9.302;2022-09-09T14:03:20;25.90;57.90
670;DHT22;317;48.758;9.302;2022-09-09T14:05:48;25.60;60.30
670;DHT22;317;48.758;9.302;2022-09-09T14:08:22;25.90;60.40
670;DHT22;317;48.758;9.302;2022-09-09T14:10:50;25.40;60.70
670;DHT22;317;48.758;9.302;2022-09-09T14:13:17;25.20;62.20
670;DHT22;317;48.758;9.302;2022-09-09T14:15:48;25.40;62.10
670;DHT22;317;48.758;9.302;2022-09-09T14:18:17;24.80;63.10
670;DHT22;317;48.758;9.302;2022-09-09T14:20:46;24.40;63.30
670;DHT22;317;48.758;9.302;2022-09-09T14:23:13;24.60;63.20
670;DHT22;317;48.758;9.302;2022-09-09T14:25:43;25.00;61.10
670;DHT22;317;48.758;9.302;2022-09-09T14:28:11;25.50;61.40
670;DHT22;317;48.758;9.302;2022-09-09T14:30:42;26.00;61.00
670;DHT22;317;48.758;9.302;2022-09-09T14:33:13;26.70;59.40
670;DHT22;317;48.758;9.302;2022-09-09T14:35:41;27.10;56.70
670;DHT22;317;48.758;9.302;2022-09-09T14:38:09;26.80;53.80
670;DHT22;317;48.758;9.302;2022-09-09T14:40:36;26.60;54.10
670;DHT22;317;48.758;9.302;2022-09-09T14:43:06;26.10;55.00
670;DHT22;317;48.758;9.302;2022-09-09T14:45:36;26.00;56.00
670;DHT22;317;48.758;9.302;2022-09-09T14:48:04;26.20;55.30
670;DHT22;317;48.758;9.302;2022-09-09T14:50:31;26.40;54.70
670;DHT22;317;48.758;9.302;2022-09-09T14:52:58;26.30;54.60
670;DHT22;317;48.758;9.302;2022-09-09T14:55:25;26.30;53.60
670;DHT22;317;48.758;9.302;2022-09-09T14:57:54;26.10;54.20
670;DHT22;317;48.758;9.302;2022-09-09T15:00:22;26.30;52.50
670;DHT22;317;48.758;9.302;2022-09-09T15:05:25;25.80;52.00
670;DHT22;317;48.758;9.302;2022-09-09T15:07:53;25.50;52.60
670;DHT22;317;48.758;9.302;2022-09-09T15:10:20;26.00;53.50
670;DHT22;317;48.758;9.302;2022-09-09T15:12:47;26.30;52.40
670;DHT22;317;48.758;9.302;2022-09-09T15:15:15;26.50;51.90
670;DHT22;317;48.758;9.302;2022-09-09T15:17:44;26.60;51.60
670;DHT22;317;48.758;9.302;2022-09-09T15:20:11;26.60;51.30
670;DHT22;317;48.758;9.302;2022-09-09T15:22:38;26.50;51.50
670;DHT22;317;48.758;9.302;2022-09-09T15:25:08;26.40;53.10
670;DHT22;317;48.758;9.302;2022-09-09T15:27:38;25.60;52.50
670;DHT22;317;48.758;9.302;2022-09-09T15:30:07;25.00;53.80
670;DHT22;317;48.758;9.302;2022-09-09T15:32:34;24.70;55.70
670;DHT22;317;48.758;9.302;2022-09-09T15:35:05;25.00;56.10
670;DHT22;317;48.758;9.302;2022-09-09T15:37:32;25.40;54.20
670;DHT22;317;48.758;9.302;2022-09-09T15:39:58;25.90;53.60
670;DHT22;317;48.758;9.302;2022-09-09T15:42:26;26.30;53.30
670;DHT22;317;48.758;9.302;2022-09-09T15:44:53;26.60;52.60
670;DHT22;317;48.758;9.302;2022-09-09T15:47:19;26.70;52.70
670;DHT22;317;48.758;9.302;2022-09-09T15:49:46;26.70;52.80
670;DHT22;317;48.758;9.302;2022-09-09T15:52:15;26.30;52.80
670;DHT22;317;48.758;9.302;2022-09-09T15:54:42;25.90;53.40
670;DHT22;317;48.758;9.302;2022-09-09T15:57:12;25.40;54.20
670;DHT22;317;48.758;9.302;2022-09-09T15:59:39;25.10;54.90
670;DHT22;317;48.758;9.302;2022-09-09T16:02:06;24.60;55.10
670;DHT22;317;48.758;9.302;2022-09-09T16:04:33;24.20;56.00
670;DHT22;317;48.758;9.302;2022-09-09T16:07:01;24.00;55.40
670;DHT22;317;48.758;9.302;2022-09-09T16:09:31;23.80;55.60
670;DHT22;317;48.758;9.302;2022-09-09T16:11:58;23.60;55.90
670;DHT22;317;48.758;9.302;2022-09-09T16:14:27;23.30;56.20
670;DHT22;317;48.758;9.302;2022-09-09T16:16:54;23.20;56.80
670;DHT22;317;48.758;9.302;2022-09-09T16:19:20;23.00;56.90
670;DHT22;317;48.758;9.302;2022-09-09T16:21:49;22.80;57.50
670;DHT22;317;48.758;9.302;2022-09-09T16:24:18;22.70;58.00
670;DHT22;317;48.758;9.302;2022-09-09T16:26:48;22.60;58.70
670;DHT22;317;48.758;9.302;2022-09-09T16:29:16;22.40;59.40
670;DHT22;317;48.758;9.302;2022-09-09T16:31:44;22.40;60.30
670;DHT22;317;48.758;9.302;2022-09-09T16:34:10;22.20;60.90
670;DHT22;317;48.758;9.302;2022-09-09T16:36:38;22.10;61.60
670;DHT22;317;48.758;9.302;2022-09-09T16:39:07;22.00;62.50
670;DHT22;317;48.758;9.302;2022-09-09T16:41:35;22.00;63.30
670;DHT22;317;48.758;9.302;2022-09-09T16:44:05;22.00;64.20
670;DHT22;317;48.758;9.302;2022-09-09T16:46:33;21.90;64.40
670;DHT22;317;48.758;9.302;2022-09-09T16:49:03;21.80;65.10
670;DHT22;317;48.758;9.302;2022-09-09T16:51:32;21.80;66.30
670;DHT22;317;48.758;9.302;2022-09-09T16:54:01;21.60;66.80
670;DHT22;317;48.758;9.302;2022-09-09T16:56:29;21.60;68.00
670;DHT22;317;48.758;9.302;2022-09-09T16:58:59;21.60;70.20
670;DHT22;317;48.758;9.302;2022-09-09T17:01:29;21.40;72.70
670;DHT22;317;48.758;9.302;2022-09-09T17:03:58;21.30;75.10
670;DHT22;317;48.758;9.302;2022-09-09T17:06:26;21.10;76.40
670;DHT22;317;48.758;9.302;2022-09-09T17:08:55;20.90;74.40
670;DHT22;317;48.758;9.302;2022-09-09T17:11:23;20.80;74.70
670;DHT22;317;48.758;9.302;2022-09-09T17:13:51;20.80;77.60